Terminal Aerodrome Forecast
Issued by NWS Bismarck, ND

Home | Current Version | Previous Version | Text Only | Print | Product List | Glossary On
Versions: 1 2 3 4 5 6 7 8 9 10 11 12 13 14 15 16 17 18 19 20 21 22 23
788
FTUS43 KBIS 310902 AAD
TAFBIS
TAF AMD
KBIS 310902Z 3109/0106 29014KT P6SM SCT015 BKN050
     FM311200 27014KT P6SM SCT015 SCT150
     FM311500 25016G24KT P6SM OVC025
     FM312100 29016G25KT P6SM -SHRA VCTS OVC015CB
     FM010200 30017G25KT P6SM OVC008=

USA.gov is the U.S. government's official web portal to all federal, state and local government web resources and services.